Time;durP1;ratioP1;P1;durP2;ratioP2;P2;SDS_P1;SDS_P2;PMS_P1;PMS_P2;Temp;Humidity;BMP_temperature;BMP_pressure;BME280_temperature;BME280_humidity;BME280_pressure;Samples;Min_cycle;Max_cycle;Signal;HPM_P1;HPM_P2
2021/10/11 00:00:07;;;;;;;8.77;5.10;;;2.20;99.90;;;;;;4954564;28;20095;-78
2021/10/11 00:02:38;;;;;;;9.23;5.32;;;2.20;99.90;;;;;;4951587;28;20035;-79
2021/10/11 00:05:04;;;;;;;12.57;4.85;;;2.20;99.90;;;;;;4960407;28;20126;-79
2021/10/11 00:07:30;;;;;;;7.28;5.18;;;2.20;99.90;;;;;;4954463;28;20031;-79
2021/10/11 00:09:56;;;;;;;10.50;4.85;;;2.10;99.90;;;;;;4960158;28;20094;-78
2021/10/11 00:12:24;;;;;;;9.50;5.38;;;2.10;99.90;;;;;;4955197;28;20039;-80
2021/10/11 00:14:51;;;;;;;9.95;4.85;;;2.20;99.90;;;;;;4963530;28;20035;-78
2021/10/11 00:17:17;;;;;;;8.32;5.18;;;2.20;99.90;;;;;;4952216;28;20521;-78
2021/10/11 00:19:43;;;;;;;7.50;5.07;;;2.20;99.90;;;;;;4952737;28;20031;-78
2021/10/11 00:22:09;;;;;;;7.82;5.10;;;2.20;99.90;;;;;;4975819;28;20043;-78
2021/10/11 00:24:35;;;;;;;7.20;4.57;;;2.20;99.90;;;;;;4956165;28;20059;-78
2021/10/11 00:27:01;;;;;;;8.90;5.13;;;2.10;99.90;;;;;;4967292;28;20071;-78
2021/10/11 00:29:26;;;;;;;10.23;5.25;;;2.20;99.90;;;;;;4959927;28;20105;-78
2021/10/11 00:31:52;;;;;;;6.90;4.88;;;2.20;99.90;;;;;;4956062;28;20031;-80
2021/10/11 00:34:18;;;;;;;8.68;5.28;;;2.10;99.90;;;;;;4976820;28;20035;-79
2021/10/11 00:36:44;;;;;;;10.52;5.15;;;2.10;99.90;;;;;;4950440;28;20043;-78
2021/10/11 00:39:10;;;;;;;5.90;4.32;;;2.10;99.90;;;;;;4956088;28;20150;-78
2021/10/11 00:41:35;;;;;;;7.53;4.50;;;2.10;99.90;;;;;;4969083;28;20470;-78
2021/10/11 00:44:02;;;;;;;6.95;4.28;;;2.10;99.90;;;;;;4971997;28;20050;-78
2021/10/11 00:46:28;;;;;;;7.57;4.10;;;2.10;99.90;;;;;;4952156;28;20065;-78
2021/10/11 00:48:54;;;;;;;6.25;4.45;;;2.10;99.90;;;;;;4975522;28;20559;-78
2021/10/11 00:51:20;;;;;;;7.90;4.63;;;2.10;99.90;;;;;;4953999;28;20119;-78
2021/10/11 00:53:46;;;;;;;8.77;4.65;;;2.00;99.90;;;;;;4975432;28;20031;-78
2021/10/11 00:56:13;;;;;;;7.95;4.45;;;2.00;99.90;;;;;;4970946;28;20439;-78
2021/10/11 00:58:38;;;;;;;7.90;4.60;;;2.00;99.90;;;;;;4962171;28;20039;-78
2021/10/11 01:01:04;;;;;;;8.20;4.63;;;2.00;99.90;;;;;;4947028;28;20035;-78
2021/10/11 01:03:30;;;;;;;9.93;4.65;;;1.90;99.90;;;;;;4980079;28;20031;-78
2021/10/11 01:05:56;;;;;;;7.15;4.70;;;1.90;99.90;;;;;;4945643;29;20035;-78
2021/10/11 01:08:22;;;;;;;7.82;4.38;;;1.90;99.90;;;;;;4975861;28;20405;-78
2021/10/11 01:10:48;;;;;;;9.32;4.78;;;1.90;99.90;;;;;;4957932;28;20027;-78
2021/10/11 01:13:15;;;;;;;8.20;4.22;;;1.80;99.90;;;;;;4957692;28;20449;-78
2021/10/11 01:15:42;;;;;;;7.78;4.50;;;1.80;99.90;;;;;;4969645;28;20417;-78
2021/10/11 01:18:08;;;;;;;7.28;4.57;;;1.80;99.90;;;;;;4964312;28;20030;-78
2021/10/11 01:20:34;;;;;;;10.13;5.32;;;1.80;99.90;;;;;;4962480;28;20023;-80
2021/10/11 01:22:59;;;;;;;7.30;5.32;;;1.80;99.90;;;;;;4975886;28;20046;-79
2021/10/11 01:25:25;;;;;;;7.25;4.53;;;1.80;99.90;;;;;;4957500;28;20039;-78
2021/10/11 01:27:51;;;;;;;7.88;4.78;;;1.70;99.90;;;;;;4955166;28;20031;-80
2021/10/11 01:30:19;;;;;;;7.13;4.40;;;1.70;99.90;;;;;;4957354;28;20094;-78
2021/10/11 01:32:46;;;;;;;9.10;4.45;;;1.70;99.90;;;;;;4960019;28;20051;-79
2021/10/11 01:35:13;;;;;;;7.35;4.70;;;1.70;99.90;;;;;;4957138;28;20502;-78
2021/10/11 01:37:39;;;;;;;6.00;4.30;;;1.70;99.90;;;;;;4971735;28;20486;-78
2021/10/11 01:40:07;;;;;;;8.63;4.22;;;1.70;99.90;;;;;;4963026;28;20115;-78
2021/10/11 01:42:33;;;;;;;7.75;4.50;;;1.60;99.90;;;;;;4969781;28;20057;-78
2021/10/11 01:44:59;;;;;;;8.88;5.13;;;1.60;99.90;;;;;;4965382;28;20039;-78
2021/10/11 01:47:26;;;;;;;7.53;4.35;;;1.60;99.90;;;;;;4951173;28;20110;-78
2021/10/11 01:49:52;;;;;;;8.88;5.07;;;1.60;99.90;;;;;;4952479;28;20031;-80
2021/10/11 01:52:18;;;;;;;6.10;4.63;;;1.50;99.90;;;;;;4960625;28;20535;-78
2021/10/11 01:54:44;;;;;;;9.25;4.53;;;1.50;99.90;;;;;;4944267;29;20028;-78
2021/10/11 01:57:11;;;;;;;8.75;4.28;;;1.50;99.90;;;;;;4969654;28;20035;-80
2021/10/11 01:59:37;;;;;;;8.43;4.75;;;1.50;99.90;;;;;;4956887;28;20517;-78
2021/10/11 02:02:03;;;;;;;7.85;5.00;;;1.50;99.90;;;;;;4978116;28;20047;-78
2021/10/11 02:04:30;;;;;;;7.97;4.70;;;1.40;99.90;;;;;;4956379;28;20043;-78
2021/10/11 02:06:56;;;;;;;7.68;4.65;;;1.40;99.90;;;;;;4950788;28;20050;-78
2021/10/11 02:09:23;;;;;;;7.47;4.43;;;1.40;99.90;;;;;;4958832;28;20035;-78
2021/10/11 02:11:48;;;;;;;7.38;4.65;;;1.40;99.90;;;;;;4963120;28;20038;-78
2021/10/11 02:14:14;;;;;;;8.90;4.50;;;1.40;99.90;;;;;;4973151;28;20416;-78
2021/10/11 02:16:40;;;;;;;9.23;4.57;;;1.40;99.90;;;;;;4955248;28;20086;-80
2021/10/11 02:19:06;;;;;;;8.02;4.95;;;1.40;99.90;;;;;;4971300;28;20043;-78
2021/10/11 02:21:32;;;;;;;7.72;4.55;;;1.40;99.90;;;;;;4955931;28;20122;-78
2021/10/11 02:23:58;;;;;;;7.85;4.63;;;1.40;99.90;;;;;;4973642;28;20465;-78
2021/10/11 02:26:24;;;;;;;8.75;4.68;;;1.30;99.90;;;;;;4958654;28;20059;-78
2021/10/11 02:28:53;;;;;;;7.22;4.07;;;1.30;99.90;;;;;;4959927;28;20497;-78
2021/10/11 02:31:19;;;;;;;9.52;4.15;;;1.20;99.90;;;;;;4960533;28;20041;-78
2021/10/11 02:33:46;;;;;;;8.63;4.97;;;1.20;99.90;;;;;;4968515;28;20458;-80
2021/10/11 02:36:13;;;;;;;8.85;4.43;;;1.20;99.90;;;;;;4956336;28;20030;-79
2021/10/11 02:38:39;;;;;;;7.20;4.53;;;1.20;99.90;;;;;;4954607;28;20090;-78
2021/10/11 02:41:05;;;;;;;10.70;4.97;;;1.20;99.90;;;;;;4962613;28;20032;-78
2021/10/11 02:43:31;;;;;;;6.90;4.38;;;1.20;99.90;;;;;;4963754;28;20035;-78
2021/10/11 02:45:57;;;;;;;11.05;4.93;;;1.20;99.90;;;;;;4963543;28;20031;-79
2021/10/11 02:48:23;;;;;;;7.55;4.43;;;1.10;99.90;;;;;;4957867;28;20038;-78
2021/10/11 02:50:49;;;;;;;7.63;4.43;;;1.20;99.90;;;;;;4959639;28;20028;-79
2021/10/11 02:53:15;;;;;;;8.15;4.28;;;1.20;99.90;;;;;;4958979;28;20046;-78
2021/10/11 02:55:41;;;;;;;9.05;4.90;;;1.20;99.90;;;;;;4944579;29;20135;-78
2021/10/11 02:58:07;;;;;;;8.18;4.32;;;1.20;99.90;;;;;;4966751;28;20389;-79
2021/10/11 03:00:33;;;;;;;7.07;4.60;;;1.20;99.90;;;;;;4955956;28;20031;-78
2021/10/11 03:02:58;;;;;;;7.07;4.28;;;1.10;99.90;;;;;;4972740;28;20035;-80
2021/10/11 03:05:24;;;;;;;5.78;4.25;;;1.20;99.90;;;;;;4971794;28;20032;-78
2021/10/11 03:07:50;;;;;;;6.25;4.43;;;1.10;99.90;;;;;;4971758;28;20039;-78
2021/10/11 03:10:15;;;;;;;5.43;4.03;;;1.10;99.90;;;;;;4972230;28;20031;-78
2021/10/11 03:12:41;;;;;;;7.68;4.20;;;1.10;99.90;;;;;;4963443;28;20037;-78
2021/10/11 03:15:08;;;;;;;6.78;3.83;;;1.00;99.90;;;;;;4961972;28;20031;-79
2021/10/11 03:17:34;;;;;;;8.93;5.35;;;1.00;99.90;;;;;;4933658;28;20046;-78
2021/10/11 03:19:59;;;;;;;6.43;4.45;;;1.00;99.90;;;;;;4954476;28;20534;-78
2021/10/11 03:22:26;;;;;;;6.68;4.30;;;1.00;99.90;;;;;;4955989;28;20059;-78
2021/10/11 03:24:53;;;;;;;8.63;5.45;;;0.90;99.90;;;;;;4953655;28;20043;-80
2021/10/11 03:27:19;;;;;;;8.82;4.90;;;0.90;99.90;;;;;;4974052;28;20058;-78
2021/10/11 03:29:44;;;;;;;6.25;4.05;;;0.90;99.90;;;;;;4956894;28;20485;-78
2021/10/11 03:32:10;;;;;;;8.55;4.82;;;0.90;99.90;;;;;;4955868;28;20127;-78
2021/10/11 03:34:36;;;;;;;7.05;4.60;;;0.90;99.90;;;;;;4968510;28;20038;-77
2021/10/11 03:37:02;;;;;;;8.63;4.85;;;0.90;99.90;;;;;;4954053;28;20039;-80
2021/10/11 03:39:27;;;;;;;7.28;4.50;;;0.90;99.90;;;;;;4971858;28;20030;-79
2021/10/11 03:41:53;;;;;;;7.35;4.25;;;0.80;99.90;;;;;;4975463;28;20039;-78
2021/10/11 03:44:19;;;;;;;9.02;5.05;;;0.80;99.90;;;;;;4957797;28;20043;-78
2021/10/11 03:46:45;;;;;;;8.02;4.57;;;0.80;99.90;;;;;;4955775;28;20035;-78
2021/10/11 03:49:10;;;;;;;8.73;4.80;;;0.80;99.90;;;;;;4961178;28;20039;-78
2021/10/11 03:51:36;;;;;;;6.85;4.30;;;0.80;99.90;;;;;;4970101;28;20139;-78
2021/10/11 03:54:02;;;;;;;7.70;4.28;;;0.80;99.90;;;;;;4955806;28;20039;-79
2021/10/11 03:56:28;;;;;;;8.57;4.97;;;0.80;99.90;;;;;;4952502;28;20066;-80
2021/10/11 03:58:54;;;;;;;7.60;4.60;;;0.90;99.90;;;;;;4968817;28;20035;-78
2021/10/11 04:01:20;;;;;;;10.20;4.13;;;0.80;99.90;;;;;;4954477;28;20680;-79
2021/10/11 04:03:46;;;;;;;6.25;4.22;;;0.80;99.90;;;;;;4968204;28;20177;-78
2021/10/11 04:06:12;;;;;;;8.35;5.10;;;0.80;99.90;;;;;;4972299;28;20036;-78
2021/10/11 04:08:40;;;;;;;8.07;5.18;;;0.80;99.90;;;;;;4960728;28;20112;-78
2021/10/11 04:11:11;;;;;;;9.23;5.05;;;0.80;99.90;;;;;;4961768;28;20031;-78
2021/10/11 04:13:38;;;;;;;8.93;5.07;;;0.80;99.90;;;;;;4957590;28;20051;-78
2021/10/11 04:16:05;;;;;;;8.40;4.43;;;0.80;99.90;;;;;;4954510;28;20027;-78
2021/10/11 04:18:31;;;;;;;9.77;5.35;;;0.80;99.90;;;;;;4951204;29;20452;-79
2021/10/11 04:20:57;;;;;;;8.85;5.45;;;0.90;99.90;;;;;;4957409;28;20103;-78
2021/10/11 04:23:23;;;;;;;7.18;4.20;;;0.90;99.90;;;;;;4960399;28;20055;-80
2021/10/11 04:25:49;;;;;;;8.18;5.60;;;0.80;99.90;;;;;;4950914;28;20401;-78
2021/10/11 04:28:15;;;;;;;8.82;4.40;;;0.90;99.90;;;;;;4949069;28;20027;-79
2021/10/11 04:30:42;;;;;;;9.73;4.80;;;0.90;99.90;;;;;;4954233;28;20058;-79
2021/10/11 04:33:08;;;;;;;7.50;4.50;;;0.90;99.90;;;;;;4965153;28;20497;-78
2021/10/11 04:35:34;;;;;;;9.73;4.93;;;0.90;99.90;;;;;;4942089;29;20042;-78
2021/10/11 04:38:00;;;;;;;10.27;5.05;;;0.90;99.90;;;;;;4951627;28;20118;-79
2021/10/11 04:40:25;;;;;;;8.52;4.80;;;0.90;99.90;;;;;;4941053;28;20031;-79
2021/10/11 04:42:51;;;;;;;8.07;4.88;;;0.90;99.90;;;;;;4967861;28;20174;-80
2021/10/11 04:45:17;;;;;;;9.75;5.65;;;0.90;99.90;;;;;;4953728;28;20680;-78
2021/10/11 04:47:42;;;;;;;7.53;4.38;;;0.90;99.90;;;;;;4969759;28;20038;-78
2021/10/11 04:50:08;;;;;;;8.80;4.68;;;0.80;99.90;;;;;;4956698;28;20490;-78
2021/10/11 04:52:34;;;;;;;7.70;4.40;;;0.80;99.90;;;;;;4956499;28;20481;-78
2021/10/11 04:55:00;;;;;;;10.55;5.13;;;0.80;99.90;;;;;;4957574;28;20482;-78
2021/10/11 04:57:26;;;;;;;8.40;4.53;;;0.80;99.90;;;;;;4955516;28;20115;-78
2021/10/11 04:59:52;;;;;;;8.63;5.05;;;0.80;99.90;;;;;;4951445;29;20101;-80
2021/10/11 05:02:17;;;;;;;14.30;7.68;;;0.70;99.90;;;;;;4954989;28;20046;-78
2021/10/11 05:04:43;;;;;;;16.92;8.18;;;0.70;99.90;;;;;;4953059;28;20034;-79
2021/10/11 05:07:09;;;;;;;18.75;9.48;;;0.70;99.90;;;;;;4951671;28;20050;-78
2021/10/11 05:09:35;;;;;;;26.40;11.57;;;0.70;99.90;;;;;;4961802;28;20035;-78
2021/10/11 05:12:00;;;;;;;28.85;12.45;;;0.70;99.90;;;;;;4959217;28;20401;-78
2021/10/11 05:14:26;;;;;;;11.27;6.80;;;0.70;99.90;;;;;;4968741;28;20036;-79
2021/10/11 05:16:53;;;;;;;14.98;7.80;;;0.70;99.90;;;;;;4949603;28;20090;-78
2021/10/11 05:19:25;;;;;;;14.43;8.13;;;0.70;99.90;;;;;;4951528;28;20047;-78
2021/10/11 05:21:52;;;;;;;13.00;7.00;;;0.70;99.90;;;;;;4961777;28;20051;-80
2021/10/11 05:24:18;;;;;;;16.00;8.27;;;0.70;99.90;;;;;;4952055;29;20042;-78
2021/10/11 05:26:44;;;;;;;16.25;8.63;;;0.70;99.90;;;;;;4956946;28;20460;-78
2021/10/11 05:29:10;;;;;;;15.02;7.85;;;0.70;99.90;;;;;;4952587;29;20035;-78
2021/10/11 05:31:37;;;;;;;12.98;8.15;;;0.70;99.90;;;;;;4953235;28;20108;-78
2021/10/11 05:34:04;;;;;;;12.32;8.05;;;0.70;99.90;;;;;;4951502;28;20386;-79
2021/10/11 05:36:31;;;;;;;15.88;10.35;;;0.70;99.90;;;;;;4953887;28;20110;-79
2021/10/11 05:38:58;;;;;;;20.73;11.13;;;0.70;99.90;;;;;;4974101;23;20046;-78
2021/10/11 05:41:24;;;;;;;15.02;9.18;;;0.70;99.90;;;;;;4969208;28;20481;-77
2021/10/11 05:43:49;;;;;;;16.33;8.93;;;0.70;99.90;;;;;;4955443;28;20113;-79
2021/10/11 05:46:15;;;;;;;16.25;9.88;;;0.70;99.90;;;;;;4967427;28;20499;-78
2021/10/11 05:48:41;;;;;;;14.57;8.48;;;0.80;99.90;;;;;;4963903;28;20050;-78
2021/10/11 05:51:06;;;;;;;14.13;8.38;;;0.90;99.90;;;;;;4954559;28;20024;-78
2021/10/11 05:53:32;;;;;;;12.05;7.50;;;0.90;99.90;;;;;;4954299;28;20481;-77
2021/10/11 05:55:58;;;;;;;14.18;7.45;;;0.90;99.90;;;;;;4954461;28;20035;-78
2021/10/11 05:58:23;;;;;;;12.77;6.05;;;0.90;99.90;;;;;;4961826;28;20074;-77
2021/10/11 06:00:49;;;;;;;9.88;6.38;;;0.90;99.90;;;;;;4956296;28;20042;-78
2021/10/11 06:03:15;;;;;;;10.32;5.85;;;0.90;99.90;;;;;;4971588;28;20035;-78
2021/10/11 06:05:41;;;;;;;13.57;6.18;;;0.90;99.90;;;;;;4956257;28;20105;-77
2021/10/11 06:08:07;;;;;;;10.77;6.47;;;0.90;99.90;;;;;;4971288;28;20098;-77
2021/10/11 06:10:32;;;;;;;9.93;5.95;;;1.00;99.90;;;;;;4952810;28;20039;-77
2021/10/11 06:12:58;;;;;;;8.60;6.53;;;1.00;99.90;;;;;;4954780;28;20482;-77
2021/10/11 06:15:24;;;;;;;12.23;6.85;;;1.00;99.90;;;;;;4953266;28;20591;-77
2021/10/11 06:17:50;;;;;;;9.18;6.15;;;1.00;99.90;;;;;;4954096;28;20047;-77
2021/10/11 06:20:16;;;;;;;12.18;6.75;;;1.00;99.90;;;;;;4952343;28;20039;-77
2021/10/11 06:22:42;;;;;;;13.77;6.50;;;1.00;99.90;;;;;;4955129;28;20038;-77
2021/10/11 06:25:08;;;;;;;8.30;5.28;;;1.10;99.90;;;;;;4958306;28;20039;-75
2021/10/11 06:27:34;;;;;;;10.65;6.22;;;1.10;99.90;;;;;;4948128;28;20078;-76
2021/10/11 06:30:00;;;;;;;10.35;5.63;;;1.10;99.90;;;;;;4952585;28;20078;-79
2021/10/11 06:32:25;;;;;;;9.25;5.50;;;1.20;99.90;;;;;;4951347;28;20981;-78
2021/10/11 06:34:51;;;;;;;12.65;6.07;;;1.20;99.90;;;;;;4962461;28;20027;-77
2021/10/11 06:37:17;;;;;;;13.20;6.20;;;1.30;99.90;;;;;;4961719;28;20027;-78
2021/10/11 06:39:43;;;;;;;11.95;6.30;;;1.40;99.90;;;;;;4939711;28;20130;-77
2021/10/11 06:42:09;;;;;;;12.73;6.18;;;1.60;99.90;;;;;;4956142;28;20039;-78
2021/10/11 06:44:35;;;;;;;9.85;5.70;;;1.90;99.90;;;;;;4921530;29;20068;-77
2021/10/11 06:47:00;;;;;;;11.10;6.35;;;2.00;99.90;;;;;;4947446;28;20032;-77
2021/10/11 06:49:26;;;;;;;13.60;6.30;;;2.20;99.90;;;;;;4949195;28;20367;-77
2021/10/11 06:51:52;;;;;;;14.35;7.30;;;2.30;99.90;;;;;;4953175;28;20028;-76
2021/10/11 06:54:18;;;;;;;12.43;7.18;;;2.30;99.90;;;;;;4964883;28;20039;-78
2021/10/11 06:56:43;;;;;;;11.38;6.57;;;2.30;99.90;;;;;;4948057;28;20035;-77
2021/10/11 06:59:09;;;;;;;10.27;6.47;;;2.50;99.90;;;;;;4945775;28;20397;-76
2021/10/11 07:01:35;;;;;;;13.80;7.50;;;2.70;99.90;;;;;;4942720;28;20173;-77
2021/10/11 07:04:01;;;;;;;13.30;7.88;;;2.90;99.90;;;;;;4946878;29;20035;-77
2021/10/11 07:06:27;;;;;;;13.15;6.53;;;3.10;99.90;;;;;;4941540;28;20027;-77
2021/10/11 07:08:53;;;;;;;14.02;7.70;;;3.10;99.90;;;;;;4948797;28;20513;-77
2021/10/11 07:11:19;;;;;;;10.75;6.90;;;3.10;99.90;;;;;;4948260;28;20075;-76
2021/10/11 07:13:45;;;;;;;12.57;6.20;;;3.20;99.90;;;;;;4946524;28;20059;-77
2021/10/11 07:16:11;;;;;;;11.05;5.90;;;3.30;99.90;;;;;;4940882;28;20080;-77
2021/10/11 07:18:38;;;;;;;10.43;6.35;;;3.20;99.90;;;;;;4944552;28;20023;-78
2021/10/11 07:21:05;;;;;;;12.52;7.03;;;3.30;99.90;;;;;;4966675;28;20482;-77
2021/10/11 07:23:32;;;;;;;12.73;6.90;;;3.40;99.90;;;;;;4947628;28;20043;-77
2021/10/11 07:26:00;;;;;;;10.55;5.80;;;3.40;99.90;;;;;;4946097;29;20039;-77
2021/10/11 07:28:26;;;;;;;14.93;6.95;;;3.50;99.90;;;;;;4951070;28;20027;-77
2021/10/11 07:30:52;;;;;;;10.43;6.25;;;3.70;99.90;;;;;;4950713;28;20421;-77
2021/10/11 07:33:19;;;;;;;13.93;6.45;;;3.70;99.90;;;;;;4949183;29;20643;-77
2021/10/11 07:35:45;;;;;;;12.23;6.22;;;3.70;99.90;;;;;;4944534;28;20440;-78
2021/10/11 07:38:10;;;;;;;10.43;6.28;;;3.60;99.90;;;;;;4968744;28;20069;-77
2021/10/11 07:40:36;;;;;;;18.75;8.63;;;3.70;99.90;;;;;;4953670;28;20035;-79
2021/10/11 07:43:03;;;;;;;17.02;9.35;;;3.70;99.90;;;;;;4951391;28;20039;-77
2021/10/11 07:45:28;;;;;;;14.25;8.82;;;3.80;99.90;;;;;;4947380;28;20043;-79
2021/10/11 07:47:54;;;;;;;9.73;6.40;;;3.80;99.90;;;;;;4952556;28;20457;-77
2021/10/11 07:50:20;;;;;;;11.10;6.70;;;4.00;99.90;;;;;;4949057;28;20043;-78
2021/10/11 07:52:46;;;;;;;12.35;7.13;;;4.00;99.90;;;;;;4950351;28;20026;-78
2021/10/11 07:55:12;;;;;;;14.65;6.82;;;4.10;99.90;;;;;;4964829;28;20085;-77
2021/10/11 07:57:38;;;;;;;13.90;6.93;;;4.30;99.90;;;;;;4943602;28;20036;-79
2021/10/11 08:00:09;;;;;;;10.98;6.32;;;4.40;99.90;;;;;;4946417;28;20503;-79
2021/10/11 08:02:35;;;;;;;15.82;7.38;;;4.60;99.90;;;;;;4949250;28;20050;-78
2021/10/11 08:05:00;;;;;;;11.32;7.53;;;4.80;99.90;;;;;;4948253;28;20508;-79
2021/10/11 08:07:26;;;;;;;11.55;7.05;;;5.00;99.90;;;;;;4973357;28;20035;-79
2021/10/11 08:09:52;;;;;;;12.57;6.78;;;5.10;99.90;;;;;;4965574;28;20051;-79
2021/10/11 08:12:18;;;;;;;10.65;6.60;;;5.10;99.90;;;;;;4947903;28;20054;-79
2021/10/11 08:14:44;;;;;;;10.73;6.18;;;5.20;99.90;;;;;;4945829;28;20036;-78
2021/10/11 08:17:11;;;;;;;12.63;6.68;;;5.30;99.90;;;;;;4953170;28;20047;-78
2021/10/11 08:19:37;;;;;;;10.43;6.80;;;5.50;99.90;;;;;;4953156;28;20031;-78
2021/10/11 08:22:03;;;;;;;11.20;6.13;;;5.60;99.90;;;;;;4951258;28;20497;-79
2021/10/11 08:24:29;;;;;;;15.18;7.45;;;5.70;99.90;;;;;;4947301;29;20126;-78
2021/10/11 08:26:55;;;;;;;10.32;6.03;;;5.80;99.90;;;;;;4952687;28;20102;-78
2021/10/11 08:29:21;;;;;;;12.10;6.40;;;5.90;99.90;;;;;;4955421;28;20437;-78
2021/10/11 08:31:47;;;;;;;13.20;7.43;;;5.90;99.90;;;;;;4958679;28;20387;-78
2021/10/11 08:34:13;;;;;;;14.50;7.13;;;6.00;99.90;;;;;;4945998;28;20027;-79
2021/10/11 08:36:38;;;;;;;13.55;7.22;;;6.10;99.90;;;;;;4948353;28;20520;-79
2021/10/11 08:39:05;;;;;;;15.48;7.35;;;6.30;99.90;;;;;;4940212;28;20058;-78
2021/10/11 08:41:31;;;;;;;11.32;7.03;;;6.50;99.90;;;;;;4947522;28;20043;-78
2021/10/11 08:43:56;;;;;;;13.50;7.05;;;6.70;99.90;;;;;;4948925;28;20027;-77
2021/10/11 08:46:25;;;;;;;12.18;7.40;;;6.90;99.90;;;;;;4945023;28;20777;-78
2021/10/11 08:48:52;;;;;;;14.32;7.05;;;7.00;99.90;;;;;;4932997;28;20031;-80
2021/10/11 08:51:18;;;;;;;11.80;7.40;;;7.10;99.90;;;;;;4953742;28;20027;-79
2021/10/11 08:53:43;;;;;;;13.07;6.82;;;7.30;99.90;;;;;;4956705;28;20042;-78
2021/10/11 08:56:11;;;;;;;11.57;6.97;;;7.40;99.90;;;;;;4945080;29;20194;-78
2021/10/11 08:58:48;;;;;;;11.95;7.93;;;7.50;99.90;;;;;;4951576;28;20099;-77
2021/10/11 09:01:14;;;;;;;13.23;6.70;;;7.50;99.90;;;;;;4951426;28;20039;-78
2021/10/11 09:03:40;;;;;;;11.80;6.55;;;7.60;99.90;;;;;;4965608;28;20046;-78
2021/10/11 09:06:11;;;;;;;11.57;7.07;;;7.60;99.90;;;;;;4954409;28;20114;-78
2021/10/11 09:08:39;;;;;;;10.52;6.47;;;7.70;99.90;;;;;;4949489;28;20401;-77
2021/10/11 09:11:12;;;;;;;12.82;6.78;;;7.70;99.90;;;;;;4947927;28;20106;-79
2021/10/11 09:13:48;;;;;;;13.05;6.57;;;7.80;99.90;;;;;;4965327;28;20067;-79
2021/10/11 09:19:28;;;;;;;12.82;5.90;;;8.00;99.90;;;;;;4946038;28;20050;-78
2021/10/11 09:21:53;;;;;;;10.18;5.65;;;8.00;99.90;;;;;;4956220;28;20713;-78
2021/10/11 09:24:21;;;;;;;10.40;5.88;;;8.10;99.90;;;;;;4966814;28;20023;-78
2021/10/11 09:26:49;;;;;;;10.20;6.05;;;8.20;99.90;;;;;;4955707;28;20035;-77
2021/10/11 09:29:33;;;;;;;10.95;5.43;;;8.30;99.90;;;;;;4958342;28;20114;-77
2021/10/11 09:32:01;;;;;;;8.25;5.40;;;8.40;99.90;;;;;;4950693;28;20104;-79
2021/10/11 09:34:27;;;;;;;8.52;5.72;;;8.50;99.90;;;;;;4953952;28;20039;-79
2021/10/11 09:36:58;;;;;;;12.10;5.88;;;8.60;99.90;;;;;;4954728;28;20027;-79
2021/10/11 09:39:26;;;;;;;10.52;5.43;;;8.70;99.90;;;;;;4964025;28;20055;-78
2021/10/11 09:41:53;;;;;;;11.43;7.22;;;8.70;99.90;;;;;;4967817;28;20028;-78
2021/10/11 09:44:19;;;;;;;11.05;5.95;;;8.80;99.90;;;;;;4955944;28;20094;-78
2021/10/11 09:46:46;;;;;;;10.27;6.70;;;8.90;99.90;;;;;;4947370;28;20042;-79
2021/10/11 09:49:12;;;;;;;8.90;5.80;;;9.00;99.90;;;;;;4953184;28;20049;-77
2021/10/11 09:51:40;;;;;;;11.05;6.60;;;9.10;99.90;;;;;;4954090;28;20456;-79
2021/10/11 09:54:06;;;;;;;12.27;6.93;;;9.30;99.90;;;;;;4946646;28;20031;-78
2021/10/11 09:56:32;;;;;;;12.80;5.82;;;9.40;99.90;;;;;;4950366;28;20382;-78
2021/10/11 09:58:59;;;;;;;16.25;8.40;;;9.40;99.90;;;;;;4951480;28;20089;-77
2021/10/11 10:01:26;;;;;;;11.25;7.45;;;9.60;99.90;;;;;;4950161;28;20683;-78
2021/10/11 10:03:54;;;;;;;15.30;7.20;;;9.60;99.90;;;;;;4964425;28;20039;-78
2021/10/11 10:06:23;;;;;;;11.60;6.88;;;9.70;99.90;;;;;;4939245;28;20043;-75
2021/10/11 10:08:52;;;;;;;11.75;7.18;;;9.80;99.90;;;;;;4945363;28;20031;-76
2021/10/11 10:11:19;;;;;;;11.98;7.88;;;9.90;99.90;;;;;;4953255;28;20046;-78
2021/10/11 10:13:47;;;;;;;13.60;7.97;;;10.00;99.90;;;;;;4968533;28;20062;-78
2021/10/11 10:16:14;;;;;;;14.05;8.20;;;10.10;99.90;;;;;;4948263;28;20375;-78
2021/10/11 10:18:44;;;;;;;13.20;7.82;;;10.20;99.90;;;;;;4949641;28;20031;-76
2021/10/11 10:21:11;;;;;;;11.18;7.45;;;10.20;99.90;;;;;;4930672;28;20030;-77
2021/10/11 10:23:41;;;;;;;16.73;7.88;;;10.30;99.90;;;;;;4948140;28;20433;-77
2021/10/11 10:26:12;;;;;;;12.18;7.00;;;10.30;99.90;;;;;;4951050;28;20054;-75
2021/10/11 10:28:50;;;;;;;12.18;7.55;;;10.30;99.90;;;;;;4954733;28;20496;-76
2021/10/11 10:31:36;;;;;;;15.43;7.68;;;10.30;99.90;;;;;;4950339;28;20494;-76
2021/10/11 10:34:20;;;;;;;16.75;7.70;;;10.30;99.90;;;;;;4952388;28;20046;-77
2021/10/11 10:37:06;;;;;;;11.43;7.18;;;10.30;99.90;;;;;;4965128;28;20054;-77
2021/10/11 10:39:45;;;;;;;10.75;7.40;;;10.20;99.90;;;;;;4955051;28;20129;-77
2021/10/11 10:42:30;;;;;;;11.07;6.82;;;10.20;99.90;;;;;;4968782;28;20047;-77
2021/10/11 10:44:57;;;;;;;12.50;8.03;;;10.20;99.90;;;;;;4968203;28;20108;-78
2021/10/11 10:47:44;;;;;;;12.43;6.50;;;10.20;99.90;;;;;;4955624;28;20039;-78
2021/10/11 10:50:24;;;;;;;13.23;7.63;;;10.20;99.90;;;;;;4955114;28;20496;-79
2021/10/11 10:52:55;;;;;;;11.25;7.13;;;10.30;99.90;;;;;;4949079;29;21594;-77
2021/10/11 10:55:21;;;;;;;13.48;6.85;;;10.40;99.90;;;;;;4948712;28;20034;-77
2021/10/11 10:57:47;;;;;;;11.10;7.25;;;10.40;99.90;;;;;;4951156;28;20407;-77
2021/10/11 11:00:17;;;;;;;17.13;8.32;;;10.50;99.90;;;;;;4947049;28;20031;-77
2021/10/11 11:02:48;;;;;;;11.40;7.57;;;10.70;99.90;;;;;;4947273;28;20069;-76
2021/10/11 11:05:15;;;;;;;14.93;8.40;;;10.80;99.90;;;;;;4966135;28;20035;-76
2021/10/11 11:07:43;;;;;;;15.45;8.02;;;10.80;99.90;;;;;;4953193;28;20034;-74
2021/10/11 11:10:13;;;;;;;15.02;8.15;;;10.80;99.90;;;;;;4954048;28;20031;-75
2021/10/11 11:12:42;;;;;;;15.40;9.55;;;11.00;99.90;;;;;;4954025;28;20041;-77
2021/10/11 11:15:25;;;;;;;12.95;8.27;;;11.00;99.90;;;;;;4952693;28;20051;-77
2021/10/11 11:17:51;;;;;;;13.65;7.32;;;11.10;99.90;;;;;;4954211;28;20031;-76
2021/10/11 11:20:24;;;;;;;13.73;7.35;;;11.10;99.90;;;;;;4955017;28;20059;-77
2021/10/11 11:22:53;;;;;;;15.40;7.57;;;11.20;99.90;;;;;;4953825;28;20031;-77
2021/10/11 11:25:28;;;;;;;13.70;7.57;;;11.30;99.90;;;;;;4948661;28;20039;-78
2021/10/11 11:27:56;;;;;;;13.85;8.07;;;11.40;99.90;;;;;;4937875;29;20032;-77
2021/10/11 11:30:22;;;;;;;17.05;7.90;;;11.50;99.90;;;;;;4953971;28;20035;-78
2021/10/11 11:33:03;;;;;;;12.75;8.02;;;11.60;99.90;;;;;;4953386;28;20024;-77
2021/10/11 11:35:30;;;;;;;12.00;7.25;;;11.70;99.90;;;;;;4965668;28;20042;-78
2021/10/11 11:37:58;;;;;;;13.48;8.10;;;11.80;99.90;;;;;;4952753;28;20496;-77
2021/10/11 11:40:28;;;;;;;15.88;7.25;;;11.90;99.90;;;;;;4950348;28;20106;-77
2021/10/11 11:42:55;;;;;;;14.38;7.03;;;12.00;99.90;;;;;;4954047;28;20039;-77
2021/10/11 11:45:34;;;;;;;11.95;7.18;;;12.00;99.90;;;;;;4950626;28;20411;-77
2021/10/11 11:48:14;;;;;;;11.48;6.90;;;12.10;99.90;;;;;;4953667;28;20040;-77
2021/10/11 11:50:41;;;;;;;9.30;6.03;;;12.10;99.90;;;;;;4956580;28;20035;-77
2021/10/11 11:53:10;;;;;;;11.38;6.80;;;12.30;99.90;;;;;;4957115;28;20062;-77
2021/10/11 11:55:37;;;;;;;13.02;7.68;;;12.40;99.90;;;;;;4954192;28;20110;-78
2021/10/11 12:00:41;;;;;;;13.25;7.28;;;12.50;99.90;;;;;;5082122;23;20035;-86
2021/10/11 12:03:09;;;;;;;10.00;6.07;;;12.50;99.90;;;;;;4955082;28;20085;-85
2021/10/11 12:05:34;;;;;;;11.32;6.50;;;12.50;99.90;;;;;;4968466;28;20027;-86
2021/10/11 12:08:00;;;;;;;11.63;6.20;;;12.50;99.90;;;;;;4943821;28;20059;-85
2021/10/11 12:10:26;;;;;;;15.48;7.28;;;12.50;99.90;;;;;;4937409;28;20081;-85
2021/10/11 12:12:57;;;;;;;9.75;6.47;;;12.50;99.90;;;;;;4938336;28;20548;-85
2021/10/11 12:15:24;;;;;;;11.77;6.95;;;12.40;99.90;;;;;;4958695;28;20429;-86
2021/10/11 12:18:00;;;;;;;11.52;6.93;;;12.30;99.90;;;;;;4938940;28;20043;-84
2021/10/11 12:20:25;;;;;;;13.80;7.65;;;12.30;99.90;;;;;;4935620;28;20042;-85
2021/10/11 12:22:54;;;;;;;12.43;7.28;;;12.30;99.90;;;;;;4937749;28;20030;-85
2021/10/11 12:25:20;;;;;;;13.07;7.47;;;12.20;99.90;;;;;;4926103;28;20070;-84
2021/10/11 12:27:46;;;;;;;16.90;8.77;;;12.10;99.90;;;;;;4921427;28;20227;-86
2021/10/11 12:30:12;;;;;;;22.58;10.98;;;12.00;99.90;;;;;;4933573;28;20089;-84
2021/10/11 12:32:37;;;;;;;19.90;10.38;;;11.90;99.90;;;;;;4967496;28;20030;-84
2021/10/11 12:35:04;;;;;;;20.95;11.00;;;11.70;99.90;;;;;;4922463;28;20031;-84
2021/10/11 12:37:42;;;;;;;20.55;11.77;;;11.60;99.90;;;;;;4921537;28;20034;-85
2021/10/11 12:40:10;;;;;;;20.95;11.90;;;11.50;99.90;;;;;;4933644;28;20522;-85
2021/10/11 12:42:46;;;;;;;18.15;11.02;;;11.40;99.90;;;;;;4936167;28;20117;-83
2021/10/11 12:45:14;;;;;;;21.73;10.77;;;11.30;99.90;;;;;;4937794;28;20105;-83
2021/10/11 12:47:41;;;;;;;22.60;11.57;;;11.20;99.90;;;;;;4952513;28;20034;-84
2021/10/11 12:50:17;;;;;;;24.33;11.55;;;11.10;99.90;;;;;;4936787;28;20027;-84
2021/10/11 12:52:47;;;;;;;20.92;12.43;;;11.00;99.90;;;;;;4948240;28;20082;-83